Time;durP1;ratioP1;P1;durP2;ratioP2;P2;SDS_P1;SDS_P2;PMS_P1;PMS_P2;Temp;Humidity;BMP_temperature;BMP_pressure;BME280_temperature;BME280_humidity;BME280_pressure;Samples;Min_cycle;Max_cycle;Signal;HPM_P1;HPM_P2
2021/12/30 00:01:19;;;;;;;49.13;22.83;;;5.80;96.40;;;;;;5000548;28;20037;-77
2021/12/30 00:03:52;;;;;;;42.97;22.33;;;5.80;96.50;;;;;;5015237;28;20033;-78
2021/12/30 00:06:21;;;;;;;43.17;21.67;;;5.80;96.80;;;;;;4999859;28;20388;-78
2021/12/30 00:08:49;;;;;;;47.35;22.55;;;5.80;97.10;;;;;;5003173;28;20097;-77
2021/12/30 00:11:16;;;;;;;45.00;21.67;;;5.80;97.30;;;;;;5037215;28;20040;-77
2021/12/30 00:13:45;;;;;;;44.47;22.60;;;5.80;97.30;;;;;;5017834;28;20033;-77
2021/12/30 00:16:17;;;;;;;46.20;20.92;;;5.80;97.50;;;;;;5035553;28;20497;-78
2021/12/30 00:18:47;;;;;;;47.28;21.50;;;5.80;97.90;;;;;;5017602;28;20394;-78
2021/12/30 00:21:14;;;;;;;45.22;21.38;;;5.80;97.80;;;;;;5001358;28;20030;-79
2021/12/30 00:23:44;;;;;;;46.58;21.15;;;5.80;97.90;;;;;;5001389;28;20453;-79
2021/12/30 00:26:13;;;;;;;43.13;21.20;;;5.80;98.10;;;;;;5017908;28;20437;-78
2021/12/30 00:28:39;;;;;;;43.20;21.63;;;5.80;97.60;;;;;;5017586;28;20021;-78
2021/12/30 00:31:07;;;;;;;46.67;21.17;;;5.80;97.10;;;;;;5035209;28;20035;-77
2021/12/30 00:33:35;;;;;;;41.95;19.50;;;5.80;96.80;;;;;;5035178;28;20142;-78
2021/12/30 00:36:21;;;;;;;40.50;19.45;;;5.80;96.40;;;;;;5035475;28;20052;-78
2021/12/30 00:38:47;;;;;;;38.67;18.27;;;5.80;95.90;;;;;;5016666;28;20113;-78
2021/12/30 00:41:14;;;;;;;44.17;21.35;;;5.70;95.90;;;;;;5017538;28;20474;-78
2021/12/30 00:43:40;;;;;;;43.63;21.48;;;5.70;96.50;;;;;;5017185;28;20033;-78
2021/12/30 00:46:08;;;;;;;45.83;24.38;;;5.70;97.30;;;;;;5000979;28;20033;-78
2021/12/30 00:48:34;;;;;;;52.70;23.95;;;5.70;97.60;;;;;;5017161;28;20022;-79
2021/12/30 00:51:02;;;;;;;45.33;23.35;;;5.70;98.00;;;;;;5028437;28;20026;-78
2021/12/30 00:53:30;;;;;;;42.67;23.27;;;5.70;98.00;;;;;;5017073;28;20072;-77
2021/12/30 00:55:58;;;;;;;47.17;23.67;;;5.70;98.20;;;;;;5017010;28;20084;-78
2021/12/30 00:58:25;;;;;;;54.72;25.60;;;5.70;98.10;;;;;;5034752;28;20105;-77
2021/12/30 01:00:55;;;;;;;56.17;27.73;;;5.60;98.00;;;;;;5035249;28;20025;-78
2021/12/30 01:03:23;;;;;;;47.97;24.52;;;5.60;98.10;;;;;;5000820;28;20056;-79
2021/12/30 01:05:50;;;;;;;51.20;24.15;;;5.50;98.20;;;;;;5017469;28;20033;-78
2021/12/30 01:08:18;;;;;;;40.47;22.67;;;5.50;98.30;;;;;;5034962;28;20050;-77
2021/12/30 01:10:48;;;;;;;49.88;23.10;;;5.50;98.30;;;;;;4984112;28;20402;-78
2021/12/30 01:13:20;;;;;;;46.33;22.20;;;5.50;98.20;;;;;;5000453;28;20026;-78
2021/12/30 01:16:02;;;;;;;45.40;21.45;;;5.50;98.40;;;;;;5017539;28;20021;-76
2021/12/30 01:21:33;;;;;;;43.10;20.13;;;5.50;98.30;;;;;;5034578;28;20043;-78
2021/12/30 01:24:14;;;;;;;44.42;19.67;;;5.50;98.40;;;;;;5034379;28;20032;-78
2021/12/30 01:26:41;;;;;;;37.33;19.20;;;5.50;98.40;;;;;;5016549;28;20036;-77
2021/12/30 01:29:07;;;;;;;41.47;19.35;;;5.50;98.50;;;;;;5016374;28;20057;-78
2021/12/30 01:31:35;;;;;;;38.88;18.13;;;5.50;98.80;;;;;;5000212;28;20041;-78
2021/12/30 01:34:02;;;;;;;40.60;18.75;;;5.50;98.60;;;;;;5034394;28;20030;-78
2021/12/30 01:36:29;;;;;;;37.47;18.25;;;5.50;98.60;;;;;;5016374;28;20026;-78
2021/12/30 01:38:55;;;;;;;42.33;18.55;;;5.60;98.30;;;;;;5034224;28;20048;-78
2021/12/30 01:41:23;;;;;;;39.25;17.35;;;5.60;98.20;;;;;;5016395;28;20108;-78
2021/12/30 01:43:52;;;;;;;39.42;17.70;;;5.60;98.20;;;;;;4999808;28;20432;-77
2021/12/30 01:46:19;;;;;;;31.52;15.52;;;5.60;98.40;;;;;;5033896;28;20496;-78
2021/12/30 01:48:46;;;;;;;34.40;15.80;;;5.60;98.30;;;;;;5033630;28;20026;-78
2021/12/30 01:51:17;;;;;;;34.38;15.95;;;5.60;98.40;;;;;;5034096;28;20036;-77
2021/12/30 01:53:44;;;;;;;31.38;15.27;;;5.70;98.40;;;;;;5033839;28;20470;-77
2021/12/30 01:56:10;;;;;;;34.28;14.32;;;5.70;98.30;;;;;;5016011;28;20021;-78
2021/12/30 01:58:37;;;;;;;30.63;15.30;;;5.70;98.30;;;;;;4999390;28;20084;-78
2021/12/30 02:01:04;;;;;;;27.65;12.73;;;5.70;97.90;;;;;;5033672;28;20029;-78
2021/12/30 02:03:30;;;;;;;25.92;12.90;;;5.70;98.00;;;;;;5015895;28;20028;-77
2021/12/30 02:05:57;;;;;;;23.95;12.48;;;5.70;98.10;;;;;;5015819;28;20029;-77
2021/12/30 02:08:23;;;;;;;22.58;12.18;;;5.70;97.90;;;;;;5015679;28;20029;-77
2021/12/30 02:10:52;;;;;;;23.55;12.35;;;5.70;98.00;;;;;;5033284;28;20453;-78
2021/12/30 02:13:19;;;;;;;22.67;11.65;;;5.70;98.20;;;;;;5015689;28;20076;-78
2021/12/30 02:15:47;;;;;;;24.30;11.55;;;5.80;98.10;;;;;;5014783;28;20039;-77
2021/12/30 02:18:13;;;;;;;22.55;11.70;;;5.80;97.90;;;;;;5033531;28;20095;-78
2021/12/30 02:20:45;;;;;;;21.05;11.00;;;5.80;97.40;;;;;;5033449;28;20080;-78
2021/12/30 02:23:22;;;;;;;24.27;12.05;;;5.80;97.20;;;;;;5033438;28;20029;-77
2021/12/30 02:25:51;;;;;;;21.08;11.18;;;5.80;97.20;;;;;;5015602;28;20057;-80
2021/12/30 02:28:18;;;;;;;20.70;11.45;;;5.70;97.40;;;;;;4999535;28;20029;-78
2021/12/30 02:30:49;;;;;;;20.90;11.85;;;5.70;97.60;;;;;;4999392;28;20030;-78
2021/12/30 02:33:15;;;;;;;19.58;11.40;;;5.70;97.50;;;;;;5016037;28;20026;-78
2021/12/30 02:35:43;;;;;;;18.75;10.50;;;5.70;97.40;;;;;;5033298;28;20025;-77
2021/12/30 02:38:10;;;;;;;17.75;10.32;;;5.70;97.30;;;;;;5015338;28;20022;-77
2021/12/30 02:40:43;;;;;;;16.95;10.02;;;5.70;97.40;;;;;;5033374;28;20129;-78
2021/12/30 02:43:20;;;;;;;17.27;9.88;;;5.80;97.40;;;;;;5015868;28;20034;-78
2021/12/30 02:45:49;;;;;;;16.90;10.73;;;5.80;97.40;;;;;;4999783;28;20305;-77
2021/12/30 02:48:19;;;;;;;19.13;10.48;;;5.80;97.30;;;;;;5015232;28;20190;-78
2021/12/30 02:51:03;;;;;;;18.08;10.75;;;5.80;97.30;;;;;;5012726;28;20435;-78
2021/12/30 02:53:30;;;;;;;18.77;10.75;;;5.90;97.20;;;;;;5033208;28;20022;-78
2021/12/30 02:55:59;;;;;;;17.52;10.52;;;5.80;97.00;;;;;;5015283;28;20383;-77
2021/12/30 02:58:34;;;;;;;19.52;12.18;;;5.90;97.00;;;;;;5033242;28;20044;-79
2021/12/30 03:01:11;;;;;;;21.58;11.65;;;5.90;97.10;;;;;;4999042;28;20144;-79
2021/12/30 03:03:54;;;;;;;17.25;10.20;;;5.90;97.00;;;;;;5015267;28;20106;-79
2021/12/30 03:06:22;;;;;;;17.98;10.82;;;5.90;97.10;;;;;;5015750;28;20033;-78
2021/12/30 03:08:50;;;;;;;15.80;9.57;;;5.90;96.70;;;;;;5015473;28;20021;-78
2021/12/30 03:11:33;;;;;;;16.83;10.20;;;5.80;96.80;;;;;;5015583;28;20033;-78
2021/12/30 03:14:01;;;;;;;15.95;10.13;;;5.80;96.90;;;;;;5033208;28;20045;-78
2021/12/30 03:16:32;;;;;;;17.90;10.23;;;5.70;96.90;;;;;;5015759;28;20103;-78
2021/12/30 03:18:59;;;;;;;16.48;9.95;;;5.70;96.80;;;;;;5032901;28;20474;-79
2021/12/30 03:21:27;;;;;;;15.60;9.65;;;5.70;96.70;;;;;;4998817;28;20033;-77
2021/12/30 03:23:57;;;;;;;14.18;8.95;;;5.60;97.00;;;;;;4981533;28;20495;-78
2021/12/30 03:26:26;;;;;;;18.65;9.45;;;5.60;97.10;;;;;;5011746;28;20144;-78
2021/12/30 03:28:52;;;;;;;15.73;8.95;;;5.50;97.60;;;;;;5036326;28;20056;-77
2021/12/30 03:31:33;;;;;;;18.05;8.50;;;5.50;97.40;;;;;;5002349;28;20029;-78
2021/12/30 03:34:00;;;;;;;16.15;8.88;;;5.50;97.40;;;;;;5036351;28;20407;-78
2021/12/30 03:36:25;;;;;;;15.82;8.50;;;5.40;97.50;;;;;;5007163;28;20068;-78
2021/12/30 03:38:54;;;;;;;15.50;9.05;;;5.40;97.60;;;;;;5016700;28;20037;-78
2021/12/30 03:41:23;;;;;;;14.48;8.13;;;5.40;97.90;;;;;;5015538;28;20033;-78
2021/12/30 03:43:51;;;;;;;15.43;8.95;;;5.40;98.10;;;;;;4998660;28;20112;-77
2021/12/30 03:46:18;;;;;;;15.65;9.20;;;5.40;98.20;;;;;;4998871;28;20026;-78
2021/12/30 03:49:06;;;;;;;12.85;8.05;;;5.40;98.10;;;;;;5016235;28;20030;-78
2021/12/30 03:51:38;;;;;;;17.95;8.38;;;5.50;98.10;;;;;;5023986;28;20100;-80
2021/12/30 03:54:04;;;;;;;15.32;8.82;;;5.50;98.10;;;;;;5036165;28;20013;-79
2021/12/30 03:56:30;;;;;;;14.65;8.18;;;5.50;98.30;;;;;;5001999;28;20030;-78
2021/12/30 03:58:58;;;;;;;11.75;7.75;;;5.50;98.00;;;;;;5018247;28;20087;-79
2021/12/30 04:01:26;;;;;;;16.73;8.32;;;5.50;98.10;;;;;;5001596;28;20033;-78
2021/12/30 04:03:57;;;;;;;13.38;7.97;;;5.50;98.10;;;;;;5035812;28;20557;-78
2021/12/30 04:06:31;;;;;;;13.70;7.78;;;5.50;98.00;;;;;;5018285;28;20029;-78
2021/12/30 04:08:59;;;;;;;16.90;8.57;;;5.50;97.90;;;;;;5017704;28;20056;-78
2021/12/30 04:11:33;;;;;;;14.98;8.60;;;5.50;97.90;;;;;;5035805;28;20021;-77
2021/12/30 04:14:01;;;;;;;16.00;8.48;;;5.60;98.00;;;;;;5017910;28;20025;-77
2021/12/30 04:16:27;;;;;;;14.85;8.73;;;5.60;98.10;;;;;;5035924;28;20029;-78
2021/12/30 04:18:54;;;;;;;13.77;8.10;;;5.60;98.10;;;;;;5001504;28;20033;-78
2021/12/30 04:21:29;;;;;;;13.52;8.32;;;5.60;98.10;;;;;;5035422;28;20028;-79
2021/12/30 04:23:57;;;;;;;14.85;8.52;;;5.60;98.20;;;;;;5017648;28;20033;-78
2021/12/30 04:26:24;;;;;;;14.63;9.90;;;5.60;98.40;;;;;;5017439;28;20044;-77
2021/12/30 04:28:52;;;;;;;11.98;8.93;;;5.60;98.40;;;;;;5017911;28;20198;-79
2021/12/30 04:31:33;;;;;;;15.70;8.57;;;5.70;98.50;;;;;;5035664;28;20097;-78
2021/12/30 04:34:00;;;;;;;19.80;9.68;;;5.70;98.40;;;;;;5035544;28;20022;-78
2021/12/30 04:36:28;;;;;;;16.67;9.27;;;5.70;98.30;;;;;;5001313;28;20040;-78
2021/12/30 04:38:54;;;;;;;15.30;8.82;;;5.70;98.50;;;;;;5033139;28;20037;-78
2021/12/30 04:41:22;;;;;;;17.55;9.57;;;5.70;98.70;;;;;;5017382;28;20021;-78
2021/12/30 04:43:50;;;;;;;17.27;8.88;;;5.70;98.90;;;;;;5035156;28;20032;-77
2021/12/30 04:46:17;;;;;;;15.80;8.77;;;5.80;98.90;;;;;;5035111;28;20040;-78
2021/12/30 04:48:45;;;;;;;18.13;9.63;;;5.80;98.80;;;;;;5017258;28;20486;-79
2021/12/30 04:51:13;;;;;;;15.95;9.65;;;5.80;98.80;;;;;;5017443;28;20021;-79
2021/12/30 04:53:42;;;;;;;16.17;9.75;;;5.80;99.20;;;;;;5017202;28;20037;-78
2021/12/30 04:56:12;;;;;;;18.17;10.38;;;5.80;98.80;;;;;;5035110;28;20091;-79
2021/12/30 04:58:40;;;;;;;14.40;8.00;;;5.80;98.80;;;;;;5000910;28;20033;-79
2021/12/30 05:01:07;;;;;;;15.07;8.68;;;5.80;98.70;;;;;;5035010;28;20084;-78
2021/12/30 05:03:35;;;;;;;17.90;9.52;;;5.90;98.70;;;;;;5017199;28;20125;-79
2021/12/30 05:06:03;;;;;;;19.23;9.57;;;5.90;98.50;;;;;;5016874;28;20026;-79
2021/12/30 05:08:29;;;;;;;17.23;10.30;;;5.90;98.20;;;;;;5017489;28;20478;-79
2021/12/30 05:10:57;;;;;;;19.63;11.70;;;6.00;98.30;;;;;;4982789;28;20054;-79
2021/12/30 05:13:25;;;;;;;20.48;10.65;;;5.90;98.10;;;;;;4998026;28;20108;-79
2021/12/30 05:15:52;;;;;;;19.13;10.43;;;6.00;98.10;;;;;;4998106;28;20026;-78
2021/12/30 05:18:20;;;;;;;20.20;9.57;;;6.00;98.20;;;;;;4997214;28;20032;-78
2021/12/30 05:20:49;;;;;;;18.50;10.88;;;6.00;98.20;;;;;;4996990;28;20029;-78
2021/12/30 05:23:16;;;;;;;16.73;10.05;;;6.00;98.20;;;;;;4997086;28;20387;-77
2021/12/30 05:25:44;;;;;;;17.65;10.38;;;6.00;97.90;;;;;;5014783;28;20121;-79
2021/12/30 05:28:14;;;;;;;16.15;10.32;;;6.10;97.80;;;;;;4996881;28;20091;-78
2021/12/30 05:30:42;;;;;;;19.35;10.57;;;6.10;97.70;;;;;;4997206;28;20332;-78
2021/12/30 05:33:11;;;;;;;16.58;10.00;;;6.10;97.60;;;;;;5014353;28;20014;-77
2021/12/30 05:35:37;;;;;;;18.30;10.85;;;6.10;97.40;;;;;;4996717;28;20033;-77
2021/12/30 05:38:05;;;;;;;16.40;10.23;;;6.10;97.30;;;;;;4996975;28;20033;-78
2021/12/30 05:40:38;;;;;;;16.25;10.07;;;6.10;97.30;;;;;;5014412;28;20116;-78
2021/12/30 05:43:18;;;;;;;18.60;11.15;;;6.20;97.30;;;;;;4996540;28;20030;-78
2021/12/30 05:45:45;;;;;;;15.77;9.43;;;6.30;97.10;;;;;;5014130;28;20070;-76
2021/12/30 05:48:11;;;;;;;17.80;10.23;;;6.30;96.20;;;;;;5014346;28;20026;-77
2021/12/30 05:50:39;;;;;;;19.27;11.52;;;6.30;96.20;;;;;;4996254;28;20141;-78
2021/12/30 05:53:07;;;;;;;20.00;11.38;;;6.20;96.30;;;;;;5014090;28;20475;-78
2021/12/30 05:55:33;;;;;;;18.95;10.73;;;6.20;96.50;;;;;;4996942;28;20025;-79
2021/12/30 05:57:59;;;;;;;17.05;11.68;;;6.20;96.60;;;;;;5013913;28;20026;-77
2021/12/30 06:00:36;;;;;;;19.95;11.50;;;6.20;96.60;;;;;;5014010;28;20033;-79
2021/12/30 06:03:04;;;;;;;23.67;12.38;;;6.20;96.60;;;;;;4996221;28;20033;-78
2021/12/30 06:05:31;;;;;;;22.13;11.18;;;6.20;96.80;;;;;;5013906;28;20026;-77
2021/12/30 06:07:57;;;;;;;19.40;11.45;;;6.10;97.50;;;;;;4996095;28;20025;-78
2021/12/30 06:10:23;;;;;;;21.25;11.63;;;6.20;97.60;;;;;;4996432;28;20060;-79
2021/12/30 06:12:51;;;;;;;22.80;12.52;;;6.20;97.80;;;;;;4996220;28;20411;-79
2021/12/30 06:15:19;;;;;;;22.80;12.15;;;6.10;98.00;;;;;;5013897;28;20057;-78
2021/12/30 06:17:47;;;;;;;21.15;12.57;;;6.20;98.40;;;;;;4996583;28;20454;-80
2021/12/30 06:20:29;;;;;;;22.88;12.45;;;6.20;98.60;;;;;;5014167;28;20033;-78
2021/12/30 06:22:56;;;;;;;21.15;12.60;;;6.20;98.50;;;;;;5013453;28;20021;-79
2021/12/30 06:25:31;;;;;;;20.65;12.10;;;6.20;98.50;;;;;;5013409;28;20037;-79
2021/12/30 06:27:59;;;;;;;22.48;12.75;;;6.20;98.60;;;;;;4995546;28;20068;-79
2021/12/30 06:30:24;;;;;;;24.67;14.13;;;6.20;98.90;;;;;;4995313;28;20101;-78
2021/12/30 06:32:51;;;;;;;28.98;15.27;;;6.20;99.00;;;;;;4995911;28;20494;-79
2021/12/30 06:35:16;;;;;;;24.20;13.05;;;6.30;98.90;;;;;;4984651;28;20026;-76
2021/12/30 06:37:42;;;;;;;29.52;14.60;;;6.30;98.70;;;;;;4993695;28;20595;-81
2021/12/30 06:40:11;;;;;;;23.40;12.63;;;6.40;98.70;;;;;;4979950;28;20026;-78
2021/12/30 06:42:38;;;;;;;23.70;13.20;;;6.40;98.30;;;;;;5008798;28;20018;-81
2021/12/30 06:45:05;;;;;;;24.08;13.75;;;6.40;98.00;;;;;;5004296;28;20541;-80
2021/12/30 06:47:33;;;;;;;19.92;12.43;;;6.30;97.90;;;;;;4979326;28;20483;-80
2021/12/30 06:50:02;;;;;;;19.92;11.10;;;6.30;97.90;;;;;;4995275;28;20025;-80
2021/12/30 06:52:32;;;;;;;22.58;12.98;;;6.30;98.30;;;;;;5012398;28;20452;-79
2021/12/30 06:55:00;;;;;;;21.60;12.52;;;6.30;98.40;;;;;;4994462;28;20394;-79
2021/12/30 06:57:28;;;;;;;20.95;12.02;;;6.30;98.70;;;;;;5012359;28;20057;-80
2021/12/30 06:59:59;;;;;;;23.05;13.68;;;6.30;99.00;;;;;;5012272;28;20133;-79
2021/12/30 07:02:25;;;;;;;25.85;13.73;;;6.30;99.00;;;;;;5014829;28;20032;-80
2021/12/30 07:04:53;;;;;;;18.10;11.88;;;6.30;99.30;;;;;;4998588;28;20104;-79
2021/12/30 07:07:23;;;;;;;22.60;13.27;;;6.30;99.20;;;;;;4997616;28;20462;-80
2021/12/30 07:09:48;;;;;;;21.95;13.27;;;6.30;99.10;;;;;;5024983;28;20045;-81
2021/12/30 07:12:15;;;;;;;20.95;12.93;;;6.30;99.20;;;;;;5036930;28;20044;-81
2021/12/30 07:14:43;;;;;;;24.58;14.60;;;6.30;99.60;;;;;;5019646;28;20030;-83
2021/12/30 07:17:11;;;;;;;22.77;14.43;;;6.30;99.80;;;;;;5019316;28;20458;-82
2021/12/30 07:19:38;;;;;;;30.20;17.70;;;6.30;99.90;;;;;;5019478;28;20034;-82
2021/12/30 07:22:04;;;;;;;33.85;18.23;;;6.30;99.90;;;;;;5013127;28;20500;-78
2021/12/30 07:24:30;;;;;;;29.38;18.70;;;6.30;99.90;;;;;;4998986;28;20121;-79
2021/12/30 07:26:57;;;;;;;31.58;18.63;;;6.30;99.90;;;;;;5028902;28;20112;-82
2021/12/30 07:29:23;;;;;;;30.95;17.20;;;6.30;99.90;;;;;;5027407;28;20108;-82
2021/12/30 07:31:49;;;;;;;35.28;18.02;;;6.30;99.90;;;;;;5006453;28;20030;-82
2021/12/30 07:34:15;;;;;;;36.03;19.60;;;6.30;99.90;;;;;;5006503;28;20121;-81
2021/12/30 07:36:42;;;;;;;29.35;18.05;;;6.30;99.90;;;;;;5010464;28;20036;-81
2021/12/30 07:39:11;;;;;;;34.47;18.08;;;6.30;99.90;;;;;;5015729;28;20041;-80
2021/12/30 07:41:39;;;;;;;33.38;18.45;;;6.30;99.90;;;;;;5036773;28;20029;-80
2021/12/30 07:44:06;;;;;;;32.38;17.55;;;6.30;99.90;;;;;;5034371;28;20095;-80
2021/12/30 07:46:34;;;;;;;33.33;19.08;;;6.30;99.90;;;;;;5017601;28;20041;-81
2021/12/30 07:49:00;;;;;;;38.55;18.23;;;6.30;99.90;;;;;;5011477;28;20038;-81
2021/12/30 07:51:28;;;;;;;36.92;19.55;;;6.30;99.90;;;;;;5034797;28;20029;-81
2021/12/30 07:53:56;;;;;;;39.67;18.73;;;6.30;99.90;;;;;;5018246;28;20037;-80
2021/12/30 07:56:23;;;;;;;35.85;19.38;;;6.30;99.90;;;;;;5006320;28;20052;-80
2021/12/30 07:58:50;;;;;;;34.50;18.15;;;6.30;99.90;;;;;;5033558;28;20045;-80
2021/12/30 08:01:17;;;;;;;41.15;19.90;;;6.30;99.90;;;;;;5017707;28;20118;-81
2021/12/30 08:03:43;;;;;;;47.65;18.55;;;6.30;99.90;;;;;;5018186;28;20542;-82
2021/12/30 08:06:09;;;;;;;35.80;19.63;;;6.30;99.90;;;;;;4985544;28;20080;-78
2021/12/30 08:08:35;;;;;;;37.83;19.25;;;6.20;99.90;;;;;;5018385;28;20065;-81
2021/12/30 08:11:01;;;;;;;34.92;18.25;;;6.30;99.90;;;;;;5015152;28;20128;-81
2021/12/30 08:13:30;;;;;;;31.30;15.73;;;6.30;99.90;;;;;;4996068;28;20482;-81
2021/12/30 08:15:57;;;;;;;37.60;16.13;;;6.30;99.90;;;;;;4997868;28;20018;-81
2021/12/30 08:18:25;;;;;;;41.75;16.48;;;6.30;99.90;;;;;;4998762;28;20216;-81
2021/12/30 08:20:52;;;;;;;34.45;15.63;;;6.30;99.90;;;;;;5016887;28;20030;-81
2021/12/30 08:23:20;;;;;;;35.92;16.70;;;6.30;99.90;;;;;;4998379;28;20030;-81
2021/12/30 08:25:51;;;;;;;39.50;17.33;;;6.40;99.90;;;;;;5009241;28;20018;-81
2021/12/30 08:28:18;;;;;;;41.50;16.55;;;6.40;99.90;;;;;;5003187;28;20495;-81
2021/12/30 08:30:45;;;;;;;32.28;18.00;;;6.50;99.90;;;;;;4959182;28;20030;-81
2021/12/30 08:33:11;;;;;;;33.80;16.48;;;6.50;99.90;;;;;;4976467;28;20039;-79
2021/12/30 08:35:36;;;;;;;32.05;14.85;;;6.50;99.90;;;;;;4943024;28;20031;-79
2021/12/30 08:38:03;;;;;;;34.83;16.65;;;6.50;99.90;;;;;;4976497;28;20042;-80
2021/12/30 08:40:31;;;;;;;35.90;15.88;;;6.60;99.90;;;;;;4976058;28;20026;-81
2021/12/30 08:42:58;;;;;;;28.65;15.02;;;6.60;99.90;;;;;;4976488;28;20045;-80
2021/12/30 08:45:26;;;;;;;27.08;14.55;;;6.60;99.90;;;;;;4975695;28;20027;-80
2021/12/30 08:48:12;;;;;;;28.58;13.55;;;6.60;99.90;;;;;;4993209;28;20048;-81
2021/12/30 08:50:39;;;;;;;27.10;14.38;;;6.70;99.90;;;;;;4993616;28;20117;-81
2021/12/30 08:53:06;;;;;;;24.95;13.88;;;6.70;99.90;;;;;;5005017;28;20097;-80
2021/12/30 08:55:34;;;;;;;26.88;13.48;;;6.70;99.90;;;;;;4961430;28;20027;-80
2021/12/30 08:58:02;;;;;;;29.75;13.73;;;6.70;99.90;;;;;;4994913;28;20065;-79
2021/12/30 09:00:31;;;;;;;22.85;13.48;;;6.80;99.90;;;;;;4961627;28;20035;-80
2021/12/30 09:03:00;;;;;;;23.90;12.82;;;6.80;99.90;;;;;;4978121;28;20042;-82
2021/12/30 09:05:26;;;;;;;28.45;13.55;;;6.90;99.90;;;;;;4962180;28;20026;-81
2021/12/30 09:07:56;;;;;;;25.38;13.40;;;6.90;99.90;;;;;;4977057;28;20038;-80
2021/12/30 09:10:24;;;;;;;27.95;11.82;;;7.00;99.90;;;;;;4996260;28;20061;-78
2021/12/30 09:13:00;;;;;;;24.38;11.80;;;7.00;99.90;;;;;;5017170;28;20018;-78
2021/12/30 09:15:29;;;;;;;20.65;10.70;;;7.10;99.90;;;;;;5021496;28;20053;-79
2021/12/30 09:17:57;;;;;;;21.83;11.85;;;7.10;99.90;;;;;;5025037;28;20018;-78
2021/12/30 09:20:28;;;;;;;25.38;11.50;;;7.20;99.90;;;;;;5007330;28;20026;-79
2021/12/30 09:22:55;;;;;;;17.75;10.75;;;7.20;99.90;;;;;;5006832;28;20022;-78
2021/12/30 09:25:23;;;;;;;25.60;11.38;;;7.20;99.90;;;;;;4999164;28;20094;-79
2021/12/30 09:27:51;;;;;;;16.98;10.32;;;7.30;99.90;;;;;;4998691;28;20018;-77
2021/12/30 09:30:18;;;;;;;22.75;10.57;;;7.40;99.90;;;;;;5014969;28;20026;-78
2021/12/30 09:32:50;;;;;;;16.65;10.85;;;7.40;99.90;;;;;;5016179;28;20034;-78
2021/12/30 09:35:18;;;;;;;15.02;9.60;;;7.50;99.90;;;;;;5019234;28;20083;-78
2021/12/30 09:37:53;;;;;;;17.52;9.93;;;7.50;99.90;;;;;;5018366;28;20025;-78
2021/12/30 09:40:20;;;;;;;18.63;10.65;;;7.60;99.90;;;;;;5018903;28;20022;-79
2021/12/30 09:42:50;;;;;;;21.50;10.88;;;7.70;99.90;;;;;;4999838;28;20018;-78
2021/12/30 09:45:33;;;;;;;19.58;10.13;;;7.80;99.90;;;;;;5014384;28;20049;-78
2021/12/30 09:48:04;;;;;;;15.98;10.02;;;7.90;99.90;;;;;;5014609;28;20018;-76
2021/12/30 09:50:53;;;;;;;21.50;12.05;;;7.90;99.90;;;;;;4997211;28;20029;-77
2021/12/30 09:53:23;;;;;;;20.38;9.98;;;8.10;99.90;;;;;;4997797;28;20014;-79
2021/12/30 09:55:51;;;;;;;18.55;10.90;;;8.20;99.90;;;;;;5014117;28;20030;-78
2021/12/30 09:58:18;;;;;;;22.30;10.20;;;8.30;99.90;;;;;;4996824;28;20116;-79
2021/12/30 10:00:54;;;;;;;21.05;10.48;;;8.40;99.90;;;;;;4996975;28;20483;-79
2021/12/30 10:03:22;;;;;;;30.23;11.52;;;8.50;99.90;;;;;;5014213;28;20025;-79
2021/12/30 10:05:53;;;;;;;50.85;13.30;;;8.50;99.90;;;;;;4997387;28;20026;-81
2021/12/30 10:08:25;;;;;;;40.40;14.98;;;8.60;99.90;;;;;;5024442;28;20029;-81
2021/12/30 10:10:57;;;;;;;32.28;12.77;;;8.60;99.90;;;;;;5005692;28;20058;-82
2021/12/30 10:13:31;;;;;;;;;;;8.70;99.90;;;;;;4984563;28;20023;-81
2021/12/30 10:16:13;;;;;;;29.88;13.02;;;8.70;99.90;;;;;;4999964;28;19964;-80
2021/12/30 10:18:55;;;;;;;28.40;12.68;;;8.70;99.90;;;;;;4982776;28;20022;-80
2021/12/30 10:21:27;;;;;;;20.63;10.30;;;8.80;99.90;;;;;;5000354;28;20084;-80
2021/12/30 10:23:56;;;;;;;17.73;11.20;;;8.80;99.90;;;;;;4981811;28;20054;-81
2021/12/30 10:26:30;;;;;;;21.33;10.85;;;9.00;99.90;;;;;;4982705;28;20026;-81
2021/12/30 10:29:00;;;;;;;20.00;11.13;;;9.00;99.90;;;;;;4983723;28;20027;-81
2021/12/30 10:31:30;;;;;;;17.42;10.15;;;9.10;99.90;;;;;;4967614;28;20053;-80
2021/12/30 10:34:07;;;;;;;18.83;10.57;;;9.10;99.90;;;;;;4985055;28;20088;-80
2021/12/30 10:36:48;;;;;;;18.83;9.82;;;9.10;99.90;;;;;;5009838;28;20018;-80
2021/12/30 10:39:30;;;;;;;22.45;11.45;;;9.10;99.90;;;;;;4994188;28;20053;-80
2021/12/30 10:42:06;;;;;;;23.48;10.73;;;9.20;99.90;;;;;;4992080;28;20037;-79
2021/12/30 10:45:06;;;;;;;18.67;10.95;;;9.30;99.90;;;;;;4986407;28;20031;-81
2021/12/30 10:47:53;;;;;;;21.58;10.63;;;9.40;99.90;;;;;;4998067;28;20015;-81
2021/12/30 10:50:23;;;;;;;29.13;12.25;;;9.40;99.60;;;;;;4996318;28;20026;-80
2021/12/30 10:53:05;;;;;;;20.98;11.25;;;9.40;99.20;;;;;;4978460;28;20089;-80
2021/12/30 10:55:46;;;;;;;19.00;10.85;;;9.50;99.20;;;;;;4978357;28;20387;-81
2021/12/30 10:58:39;;;;;;;20.52;10.73;;;9.50;98.70;;;;;;4994146;28;20388;-80
2021/12/30 11:01:14;;;;;;;22.23;10.98;;;9.50;98.60;;;;;;4973653;28;20065;-81
2021/12/30 11:03:42;;;;;;;23.85;11.77;;;9.40;98.80;;;;;;4976955;28;20058;-80
2021/12/30 11:06:18;;;;;;;21.52;11.75;;;9.40;98.70;;;;;;4961524;28;20089;-81
2021/12/30 11:08:49;;;;;;;21.50;10.95;;;9.40;98.80;;;;;;4961077;28;20090;-80
2021/12/30 11:11:42;;;;;;;19.80;11.02;;;9.30;99.20;;;;;;4977158;28;20058;-81
2021/12/30 11:14:16;;;;;;;16.50;9.90;;;9.40;99.30;;;;;;4976021;28;20022;-80
2021/12/30 11:17:15;;;;;;;20.85;11.60;;;9.40;99.40;;;;;;4960202;28;20031;-81
2021/12/30 11:19:48;;;;;;;25.42;10.95;;;9.40;99.20;;;;;;4976282;28;20058;-81
2021/12/30 11:22:20;;;;;;;23.33;11.40;;;9.40;99.20;;;;;;4960896;28;20034;-81
2021/12/30 11:24:49;;;;;;;24.25;11.50;;;9.50;99.20;;;;;;4978407;28;20023;-81
2021/12/30 11:27:18;;;;;;;19.23;10.65;;;9.40;99.40;;;;;;4997689;28;20038;-81
2021/12/30 11:29:54;;;;;;;23.70;11.95;;;9.50;99.50;;;;;;4966295;28;20041;-81
2021/12/30 11:32:25;;;;;;;18.83;10.30;;;9.50;99.40;;;;;;4979280;28;20029;-79
2021/12/30 11:35:06;;;;;;;24.65;11.05;;;9.60;99.80;;;;;;4975961;28;20053;-78
2021/12/30 11:37:33;;;;;;;23.25;10.93;;;9.70;99.20;;;;;;4993267;28;20033;-79
2021/12/30 11:40:07;;;;;;;25.33;12.32;;;9.70;98.90;;;;;;4975832;28;20076;-78
2021/12/30 11:42:53;;;;;;;27.13;12.27;;;9.80;98.40;;;;;;4975511;28;20441;-78
2021/12/30 11:45:28;;;;;;;25.50;11.40;;;9.90;97.10;;;;;;4975527;28;20027;-78
2021/12/30 11:47:56;;;;;;;26.10;11.77;;;10.00;96.20;;;;;;4977509;28;20081;-78
2021/12/30 11:50:38;;;;;;;22.90;11.23;;;10.10;95.90;;;;;;4979291;28;20018;-79
2021/12/30 11:53:11;;;;;;;;;;;10.10;96.30;;;;;;4979375;28;20060;-79
2021/12/30 11:56:09;;;;;;;28.48;11.65;;;10.00;96.90;;;;;;4978888;28;19906;-78
2021/12/30 11:58:42;;;;;;;28.60;12.93;;;10.00;97.40;;;;;;4978872;28;20039;-79
2021/12/30 12:01:14;;;;;;;24.83;12.95;;;9.90;97.70;;;;;;4996708;28;20030;-79
2021/12/30 12:03:59;;;;;;;26.40;12.05;;;9.90;97.60;;;;;;4978680;28;20383;-79
2021/12/30 12:06:36;;;;;;;25.60;12.35;;;10.00;97.60;;;;;;4980691;28;20038;-79
2021/12/30 12:09:04;;;;;;;21.83;11.35;;;10.00;97.50;;;;;;4978366;28;20097;-78
2021/12/30 12:11:47;;;;;;;26.60;11.65;;;10.00;97.30;;;;;;4978590;28;20037;-79
2021/12/30 12:14:22;;;;;;;26.60;11.27;;;10.00;96.80;;;;;;4962887;28;20387;-78
2021/12/30 12:16:58;;;;;;;23.75;10.43;;;10.00;96.90;;;;;;4996127;28;20030;-79
2021/12/30 12:19:51;;;;;;;24.23;11.38;;;9.90;96.60;;;;;;4996285;28;20117;-78
2021/12/30 12:22:19;;;;;;;25.77;12.98;;;10.00;96.70;;;;;;4978523;28;20332;-78
2021/12/30 12:25:06;;;;;;;21.77;10.70;;;10.00;96.40;;;;;;4995958;28;20038;-78
2021/12/30 12:27:46;;;;;;;23.63;10.57;;;10.00;95.90;;;;;;4981441;28;20038;-78
2021/12/30 12:30:37;;;;;;;23.60;10.93;;;10.00;95.60;;;;;;4979483;28;20030;-78
2021/12/30 12:33:25;;;;;;;32.17;13.80;;;10.00;95.40;;;;;;4995793;28;20018;-78
2021/12/30 12:35:51;;;;;;;25.50;12.52;;;9.90;95.20;;;;;;4962035;28;20031;-79
2021/12/30 12:38:38;;;;;;;26.75;11.88;;;9.80;95.10;;;;;;4978105;28;20082;-80
2021/12/30 12:41:25;;;;;;;28.33;11.38;;;9.80;95.20;;;;;;4996199;28;20038;-79
2021/12/30 12:44:06;;;;;;;28.42;13.63;;;9.80;95.20;;;;;;4978238;28;20110;-78
2021/12/30 12:46:51;;;;;;;25.23;13.32;;;9.80;95.60;;;;;;4995288;28;20019;-78
2021/12/30 12:49:32;;;;;;;27.42;12.60;;;9.70;95.60;;;;;;4977784;28;20031;-79
2021/12/30 12:52:01;;;;;;;28.60;13.55;;;9.70;95.80;;;;;;4996134;28;20029;-80
2021/12/30 12:54:40;;;;;;;29.08;13.85;;;9.60;96.10;;;;;;4962029;28;20545;-78
2021/12/30 12:57:25;;;;;;;27.92;13.63;;;9.60;96.00;;;;;;4977772;28;20105;-76
2021/12/30 12:59:53;;;;;;;31.55;12.55;;;9.60;95.70;;;;;;4995031;28;20022;-78